Latest Weather Observations for Moranbah Airport

IDQ60801

Issued at 12:35 pm EST Tuesday 16 September 2014 (issued every 30 minutes, with the page automatically refreshed every 10 minutes)

About weather observations | Map of weather stations | Latest weather observations for QLD | Other Formats
Station Details ID: 034035 Name: MORANBAH AIRPORT Lat: -22.06 Lon: 148.08 Height: 232.2 m
Data from the previous 72 hours. | See also: Recent months at Moranbah Airport
Date/Time
EST
Temp
°C
App
Temp
°C
Dew
Point
Rel
Hum
%
Delta-T
°C
Wind Press
QNH
hPa
Press
MSL
hPa
Rain
since 9 am
mm
Dir
 
Spd
km/h
Gust
km/h
Spd
kts
Gust
kts
16/12:30pm 28.4 23.8 1.8 18 13.1 E 15 28 8 15 1016.1 1015.3 0.0
16/12:00pm 28.3 24.0 3.2 20 12.6 E 15 30 8 16 1016.5 1015.7 0.0
16/11:30am 27.1 23.5 4.8 24 11.5 E 13 20 7 11 1017.1 1016.2 0.0
16/11:00am 26.9 23.9 5.8 26 11.0 E 11 22 6 12 1017.7 1016.8 0.0
16/10:30am 25.5 21.9 5.1 27 10.5 N 13 20 7 11 1018.3 1017.4 0.0
16/10:00am 25.1 22.3 5.3 28 10.1 N 9 19 5 10 1018.7 1017.8 0.0
16/09:30am 23.7 21.0 5.6 31 9.3 N 9 13 5 7 1019.1 1018.2 0.0
16/09:00am 22.0 20.2 9.5 45 6.8 NNW 9 13 5 7 1019.2 1018.3 0.0
16/08:30am 20.3 19.5 11.8 58 4.8 NNW 7 11 4 6 1019.3 1018.4 0.0
16/08:00am 17.8 17.4 11.1 65 3.7 NNW 4 7 2 4 1019.2 1018.3 0.0
16/07:30am 14.9 14.8 9.5 70 2.8 CALM 0 0 0 0 1018.9 1018.0 0.0
16/07:00am 11.6 11.1 7.7 77 1.9 CALM 0 0 0 0 1018.5 1017.6 0.0
16/06:30am 9.4 8.2 6.5 82 1.4 W 2 6 1 3 1018.2 1017.3 0.0
16/06:00am 8.9 6.9 6.3 84 1.2 W 6 6 3 3 1017.9 1017.0 0.0
16/05:30am 9.0 7.0 6.1 82 1.3 W 6 7 3 4 1017.6 1016.7 0.0
16/05:00am 8.9 6.7 6.0 82 1.3 WSW 7 9 4 5 1017.4 1016.5 0.0
16/04:30am 9.3 7.7 6.2 81 1.4 NW 4 6 2 3 1017.1 1016.2 0.0
16/04:00am 10.0 9.1 6.0 76 1.9 CALM 0 0 0 0 1017.1 1016.2 0.0
16/03:30am 9.8 8.8 5.8 76 1.9 CALM 0 0 0 0 1016.8 1015.9 0.0
16/03:00am 10.6 9.7 6.2 74 2.1 CALM 0 0 0 0 1016.9 1016.0 0.0
16/02:30am 11.3 9.2 5.8 69 2.6 SW 6 7 3 4 1016.8 1015.9 0.0
16/02:00am 11.8 9.2 5.9 67 2.8 SSW 9 13 5 7 1016.8 1015.9 0.0
16/01:30am 12.3 9.8 6.6 68 2.7 WNW 9 13 5 7 1016.8 1015.9 0.0
16/01:00am 13.3 10.9 7.1 66 3.0 WSW 9 9 5 5 1017.1 1016.2 0.0
16/12:30am 12.4 10.3 6.0 65 3.0 SW 6 7 3 4 1017.2 1016.3 0.0
16/12:00am 13.9 11.8 6.0 59 3.8 SSW 6 9 3 5 1017.4 1016.5 0.0
 
Date/Time
EST
Temp
°C
App
Temp
°C
Dew
Point
Rel
Hum
%
Delta-T
°C
Wind Press
QNH
hPa
Press
MSL
hPa
Rain
since 9 am
mm
Dir
 
Spd
km/h
Gust
km/h
Spd
kts
Gust
kts
15/11:30pm 14.2 12.0 6.1 58 3.9 SW 7 9 4 5 1017.3 1016.4 0.0
15/11:00pm 15.7 13.7 6.4 54 4.6 WNW 6 9 3 5 1017.2 1016.3 0.0
15/10:30pm 16.3 12.6 6.2 51 5.0 SE 15 19 8 10 1017.0 1016.1 0.0
15/10:00pm 17.2 12.8 6.4 49 5.4 SE 19 20 10 11 1017.0 1016.1 0.0
15/09:30pm 18.0 14.7 6.5 47 5.8 E 13 17 7 9 1017.1 1016.2 0.0
15/09:00pm 18.3 15.3 6.2 45 6.0 E 11 13 6 7 1017.2 1016.3 0.0
15/08:30pm 18.7 15.4 6.2 44 6.3 E 13 15 7 8 1017.1 1016.2 0.0
15/08:00pm 20.5 17.7 6.8 41 7.0 NE 11 15 6 8 1016.8 1015.9 0.0
15/07:30pm 21.2 17.0 5.9 37 7.7 E 17 22 9 12 1016.2 1015.4 0.0
15/07:00pm 21.8 18.1 6.1 36 8.0 ESE 15 17 8 9 1015.8 1015.0 0.0
15/06:30pm 22.2 18.4 5.6 34 8.4 SE 15 15 8 8 1015.5 1014.6 0.0
15/06:00pm 24.8 21.7 5.6 29 9.9 SE 11 15 6 8 1015.3 1014.4 0.0
15/05:30pm 25.9 22.0 5.5 27 10.6 SE 15 24 8 13 1015.2 1014.3 0.0
15/05:00pm 26.1 21.9 5.7 27 10.6 SE 17 20 9 11 1014.8 1013.9 0.0
15/04:30pm 27.2 22.0 5.5 25 11.3 SE 22 32 12 17 1014.6 1013.7 0.0
15/04:00pm 27.1 23.5 4.8 24 11.5 ESE 13 20 7 11 1014.5 1013.6 0.0
15/03:30pm 26.6 21.9 5.0 25 11.1 E 19 24 10 13 1014.5 1013.6 0.0
15/03:00pm 26.7 24.0 3.9 23 11.5 NE 7 13 4 7 1014.6 1013.7 0.0
15/02:30pm 27.3 24.1 5.0 24 11.5 SE 11 24 6 13 1015.0 1014.1 0.0
15/02:00pm 28.2 23.4 5.7 24 11.8 SSE 20 28 11 15 1015.2 1014.3 0.0
15/01:30pm 26.2 21.8 4.6 25 11.0 SSE 17 26 9 14 1015.6 1014.7 0.0
15/01:00pm 26.9 23.2 6.3 27 10.9 ESE 15 28 8 15 1016.1 1015.3 0.0
15/12:30pm 27.5 23.4 7.9 29 10.7 ESE 19 30 10 16 1016.8 1015.9 0.0
15/12:00pm 26.3 21.7 6.3 28 10.5 SSE 20 28 11 15 1017.2 1016.3 0.0
15/11:30am 26.0 22.1 8.5 33 9.6 ESE 19 28 10 15 1017.7 1016.8 0.0
15/11:00am 25.9 22.9 10.5 38 8.7 ESE 17 24 9 13 1018.3 1017.4 0.0
15/10:30am 24.3 21.5 12.6 48 6.8 E 19 30 10 16 1018.8 1017.9 0.0
15/10:00am 23.0 21.2 13.2 54 5.7 E 15 22 8 12 1019.1 1018.2 0.0
15/09:30am 22.1 19.9 13.2 57 5.2 E 17 24 9 13 1019.5 1018.7 0.0
15/09:00am 21.0 19.5 14.2 65 4.0 E 15 20 8 11 1019.7 1018.9 0.0
15/08:30am 19.7 18.2 14.3 71 3.2 E 15 22 8 12 1019.9 1019.1 0.0
15/08:00am 18.6 17.1 14.3 76 2.5 ESE 15 19 8 10 1019.9 1019.1 0.0
15/07:30am 17.2 16.2 14.7 85 1.5 ESE 13 17 7 9 1019.6 1018.8 0.0
15/07:00am 14.4 15.3 13.0 91 0.8 CALM 0 0 0 0 1019.4 1018.6 0.0
15/06:30am 12.3 12.8 11.5 95 0.4 CALM 0 0 0 0 1019.3 1018.4 0.0
15/06:00am 11.8 10.8 10.4 91 0.7 SE 6 7 3 4 1019.1 1018.2 0.0
15/05:30am 13.1 12.0 12.0 93 0.6 SSE 9 9 5 5 1018.8 1017.9 0.0
15/05:00am 13.2 11.7 11.9 92 0.7 SSE 11 13 6 7 1018.7 1017.8 0.0
15/04:30am 13.7 11.9 12.1 90 0.9 S 13 15 7 8 1018.5 1017.6 0.0
15/04:00am 13.7 12.0 12.3 91 0.8 S 13 15 7 8 1018.3 1017.4 0.0
15/03:30am 13.8 12.1 12.4 91 0.8 SSE 13 13 7 7 1018.2 1017.3 0.0
15/03:00am 14.1 12.4 12.5 90 0.9 SSE 13 13 7 7 1018.2 1017.3 0.0
15/02:30am 13.8 12.0 12.0 89 1.0 SSE 13 15 7 8 1018.3 1017.4 0.0
15/02:00am 13.6 11.7 11.7 88 1.0 SSE 13 13 7 7 1018.5 1017.6 0.0
15/01:30am 13.9 12.3 11.6 86 1.2 SSE 11 13 6 7 1018.7 1017.8 0.0
15/01:00am 13.5 11.7 10.9 84 1.4 SE 11 13 6 7 1018.8 1017.9 0.0
15/12:30am 15.0 13.5 11.8 81 1.7 SE 11 11 6 6 1019.1 1018.2 0.0
15/12:00am 15.2 14.1 11.8 80 1.9 ESE 9 11 5 6 1019.3 1018.4 0.0
 
Date/Time
EST
Temp
°C
App
Temp
°C
Dew
Point
Rel
Hum
%
Delta-T
°C
Wind Press
QNH
hPa
Press
MSL
hPa
Rain
since 9 am
mm
Dir
 
Spd
km/h
Gust
km/h
Spd
kts
Gust
kts
14/11:30pm 15.4 13.8 11.6 78 2.1 ESE 11 11 6 6 1019.5 1018.7 0.0
14/11:00pm 16.0 14.8 11.6 75 2.4 ESE 9 9 5 5 1019.7 1018.9 0.0
14/10:30pm 17.0 16.1 11.3 69 3.1 ESE 7 9 4 5 1019.8 1019.0 0.0
14/10:00pm 18.3 16.4 11.8 66 3.6 E 13 17 7 9 1019.7 1018.9 0.0
14/09:30pm 19.1 16.9 12.1 64 3.9 ENE 15 20 8 11 1019.6 1018.8 0.0
14/09:00pm 19.4 16.9 12.2 63 4.0 ENE 17 30 9 16 1019.3 1018.4 0.0
14/08:30pm 20.0 17.4 12.0 60 4.5 ENE 17 24 9 13 1018.9 1018.0 0.0
14/08:00pm 20.6 17.4 11.8 57 4.9 NE 20 28 11 15 1018.6 1017.7 0.0
14/07:30pm 21.7 17.5 11.1 51 5.9 NE 24 30 13 16 1018.0 1017.1 0.0
14/07:00pm 22.4 18.8 10.5 47 6.6 NE 20 30 11 16 1017.5 1016.6 0.0
14/06:30pm 23.3 19.6 7.8 37 8.2 E 17 20 9 11 1017.0 1016.1 0.0
14/06:00pm 24.5 21.2 8.0 35 8.8 ESE 15 20 8 11 1016.5 1015.7 0.0
14/05:30pm 25.4 21.0 7.5 32 9.6 E 20 30 11 16 1016.3 1015.5 0.0
14/05:00pm 25.9 21.0 7.0 30 10.0 ESE 22 35 12 19 1016.1 1015.3 0.0
14/04:30pm 26.5 21.5 8.0 31 10.0 ESE 24 32 13 17 1016.0 1015.2 0.0
14/04:00pm 26.6 21.3 6.6 28 10.6 ESE 24 41 13 22 1016.0 1015.2 0.0
14/03:30pm 27.2 22.8 7.6 29 10.6 ESE 20 30 11 16 1016.0 1015.2 0.0
14/03:04pm 27.0 21.2 8.0 30 10.3 ESE 28 46 15 25 1016.3 1015.5 0.0
14/03:00pm 27.5 21.3 7.9 29 10.7 ESE 30 46 16 25 1016.3 1015.5 0.0
14/02:54pm 27.4 20.7 7.3 28 10.8 SE 32 44 17 24 1016.4 1015.6 0.0
14/02:30pm 26.9 23.0 8.8 32 10.0 ESE 19 26 10 14 1016.6 1015.8 0.0
14/02:00pm 26.3 20.3 8.8 33 9.6 E 30 41 16 22 1017.2 1016.3 0.0
14/01:30pm 27.1 22.1 9.5 33 9.8 ESE 26 37 14 20 1017.7 1016.8 0.0
14/01:00pm 26.1 21.3 9.0 34 9.4 ESE 24 39 13 21 1018.1 1017.2 0.0
14/12:30pm 26.1 21.9 9.9 36 9.1 ESE 22 37 12 20 1018.7 1017.8 0.0
14/12:00pm 24.9 19.4 9.2 37 8.6 SE 28 41 15 22 1019.2 1018.3 0.0
14/11:30am 24.8 20.2 9.5 38 8.4 SE 24 35 13 19 1019.7 1018.9 0.0
14/11:00am 24.1 18.4 9.7 40 7.9 E 30 43 16 23 1020.2 1019.4 0.0
14/10:30am 23.3 18.9 10.4 44 7.2 ESE 24 33 13 18 1020.7 1019.9 0.0
14/10:00am 22.2 17.0 10.4 47 6.5 ESE 28 37 15 20 1021.1 1020.3 0.0
14/09:30am 22.0 18.2 12.3 54 5.5 ESE 24 33 13 18 1021.2 1020.4 0.0
14/09:00am 20.3 16.6 12.8 62 4.3 ESE 24 33 13 18 1021.4 1020.5 0.0
14/08:30am 19.3 16.1 13.0 67 3.6 ESE 22 32 12 17 1021.2 1020.4 0.0
14/08:00am 18.1 15.3 12.5 70 3.1 SE 19 24 10 13 1021.2 1020.4 0.0
14/07:30am 16.7 15.2 13.0 79 2.1 ESE 13 17 7 9 1020.9 1020.1 0.0
14/07:00am 13.9 14.8 12.8 93 0.6 CALM 0 0 0 0 1020.5 1019.7 0.0
14/06:30am 13.5 13.1 12.9 96 0.3 ESE 7 11 4 6 1020.1 1019.3 0.0
14/06:00am 13.0 11.3 12.4 96 0.3 SE 13 15 7 8 1019.7 1018.9 0.0
14/05:30am 12.9 10.8 12.3 96 0.3 SE 15 19 8 10 1019.6 1018.8 0.0
14/05:00am 12.8 10.7 12.3 97 0.3 SE 15 17 8 9 1019.3 1018.4 0.0
14/04:30am 12.4 10.9 11.9 97 0.3 SE 11 15 6 8 1019.1 1018.2 0.0
14/04:00am 10.5 8.3 9.3 92 0.6 SE 11 13 6 7 1019.1 1018.2 0.0
14/03:30am 11.2 9.9 9.9 92 0.7 ESE 7 7 4 4 1019.2 1018.3 0.0
14/03:00am 12.5 12.9 11.2 92 0.7 CALM 0 0 0 0 1019.4 1018.6 0.0
14/02:30am 12.7 11.6 10.8 88 1.0 S 7 11 4 6 1019.4 1018.6 0.0
14/02:00am 13.3 12.1 11.5 89 1.0 SSE 9 11 5 6 1019.7 1018.9 0.0
14/01:30am 14.0 12.3 12.4 90 0.9 SE 13 15 7 8 1020.1 1019.3 0.0
14/01:00am 13.5 11.7 12.2 92 0.7 SE 13 13 7 7 1020.4 1019.6 0.0
14/12:30am 14.1 13.0 12.1 88 1.1 SE 9 9 5 5 1020.8 1020.0 0.0
14/12:00am 14.3 12.5 12.0 86 1.3 SE 13 15 7 8 1021.1 1020.3 0.0
 
Date/Time
EST
Temp
°C
App
Temp
°C
Dew
Point
Rel
Hum
%
Delta-T
°C
Wind Press
QNH
hPa
Press
MSL
hPa
Rain
since 9 am
mm
Dir
 
Spd
km/h
Gust
km/h
Spd
kts
Gust
kts
13/11:30pm 15.0 13.2 12.1 83 1.6 SE 13 15 7 8 1021.4 1020.5 0.0
13/11:00pm 14.9 12.8 11.3 79 1.9 SE 13 15 7 8 1021.4 1020.5 0.0
13/10:30pm 15.5 13.5 11.5 77 2.2 SE 13 15 7 8 1021.2 1020.4 0.0
13/10:00pm 16.3 14.2 11.2 72 2.8 ESE 13 15 7 8 1021.1 1020.3 0.0
13/09:30pm 17.7 15.3 11.3 66 3.5 ESE 15 19 8 10 1021.0 1020.2 0.0
13/09:00pm 17.4 14.1 10.8 65 3.6 SE 19 20 10 11 1020.8 1020.0 0.0
13/08:30pm 16.2 14.2 10.1 67 3.2 SE 11 11 6 6 1020.5 1019.7 0.0
13/08:00pm 17.2 15.2 10.1 63 3.8 SE 11 13 6 7 1020.2 1019.4 0.0
13/07:30pm 18.7 16.4 10.5 59 4.5 ESE 13 15 7 8 1019.9 1019.1 0.0
13/07:00pm 19.4 17.1 10.4 56 4.9 ESE 13 13 7 7 1019.7 1018.9 0.0
13/06:30pm 20.6 17.9 10.4 52 5.6 ESE 15 17 8 9 1019.3 1018.4 0.0
13/06:00pm 22.2 19.0 10.0 46 6.7 ESE 17 24 9 13 1019.1 1018.2 0.0
13/05:30pm 23.3 19.6 10.0 43 7.3 ESE 20 28 11 15 1018.9 1018.0 0.0
13/05:00pm 23.9 19.9 10.6 43 7.4 ESE 22 32 12 17 1018.7 1017.8 0.0
13/04:30pm 24.6 20.4 11.2 43 7.6 E 24 35 13 19 1018.5 1017.6 0.0
13/04:00pm 24.1 20.1 11.8 46 7.0 ESE 24 35 13 19 1018.3 1017.4 0.0
13/03:30pm 24.6 20.5 11.5 44 7.5 ESE 24 35 13 19 1018.4 1017.5 0.0
13/03:00pm 24.9 21.0 12.2 45 7.3 SE 24 30 13 16 1018.6 1017.7 0.0
13/02:30pm 24.6 20.3 12.2 46 7.2 ESE 26 39 14 21 1018.8 1017.9 0.0
13/02:00pm 24.6 19.6 12.2 46 7.1 ESE 30 41 16 22 1019.3 1018.4 0.0
13/01:30pm 24.7 20.3 13.0 48 6.8 ESE 28 41 15 22 1019.9 1019.1 0.0
13/01:06pm 24.2 19.9 13.1 50 6.5 ESE 28 46 15 25 1020.0 1019.2 0.0
13/01:00pm 23.6 18.5 13.2 52 6.1 ESE 32 46 17 25 1020.0 1019.2 0.0

Other Formats:

Comma delimited format used in spreadsheet applications
http://www.bom.gov.au/fwo/IDQ60801/IDQ60801.94397.axf

JavaScript Object Notation format (JSON) in row-major order
http://www.bom.gov.au/fwo/IDQ60801/IDQ60801.94397.json